Terminal Aerodrome Forecast
Issued by NWS Pittsburgh, PA

Current Version | Previous Version | Graphics & Text | Print | Product List | Glossary On
Versions: 1 2 3 4 5 6 7 8 9 10 11 12 13 14 15 16 17 18 19 20 21 22 23 24 25 26 27 28 29 30 31 32 33 34
442
FTUS41 KPBZ 242320
TAFPIT
TAF
KPIT 242320Z 2500/2606 18008KT P6SM BKN250
     FM250300 18010KT P6SM BKN060 WS020/20045KT
     FM251000 19012G25KT 3SM -SHRA VCTS BKN045CB
     FM251600 26013G26KT P6SM OVC025
     FM252200 26010KT P6SM BKN035=

USA.gov is the U.S. government's official web portal to all federal, state and local government web resources and services.